Meteo Giornale » Osservazioni meteo Italia » Trieste

ore: 22:55 - Osservazioni Meteo Trieste
Lat. 45° 39' N Lon. 13° 45' E Alt. 8 metri s.l.m.

sereno Europe/Rome

28 °C

Sereno

Temp. 24 Ore

26 °C

34 °C

Est/Nord-Est

9.3 Km/h

Dew point 14 °C

Umidità 42 %

Visibilità  10 Km

Il sole sorge alle ore 06:10

Il sole tramonta alle ore 20:06

Data e Ora Cielo e Fenomeni T °C DP °C Um. % Pres. hPa Vis. km Vento km/h
Ieri h: 22:55 sereno Sereno 28 14 42 1014 10 E/NE 9.3
Ieri h: 21:55 sereno Sereno 29 15 42 1014 10 E/NE 9.3
Ieri h: 19:55 sereno Sereno 28 22 69 1013 10 N 5.5
Ieri h: 18:55 poco_nuvoloso Poco Nuvoloso 31 20 52 1013 10 N 0
Ieri h: 17:55 poco_nuvoloso Poco Nuvoloso 31 20 52 1013 10 N 3.7
Ieri h: 16:55 poco_nuvoloso Poco Nuvoloso 32 19 46 1013 10 N 1.8
Ieri h: 15:55 nuvoloso Nuvoloso 32 20 49 1013 10 N 3.7
Ieri h: 14:55 nuvoloso Nuvoloso 34 19 41 1014 10 N 3.7
Ieri h: 13:55 nuvoloso Nuvoloso 33 19 43 1014 10 N 5.5
Ieri h: 12:55 nuvoloso Nuvoloso 34 17 36 1014 10 N 5.5
Ieri h: 11:55 sereno Sereno 34 16 34 1015 10 N 3.7
Ieri h: 10:55 sereno Sereno 32 15 35 1015 10 NE 11.1
Ieri h: 09:55 sereno Sereno 30 15 40 1015 10 NE 14.8
Ieri h: 08:55 sereno Sereno 29 15 42 1015 10 NE 14.8
Ieri h: 07:55 sereno Sereno 27 15 47 1014 10 NE 18.5
Ieri h: 06:55 sereno Sereno 27 14 44 1014 10 NE 18.5
Ieri h: 05:55 sereno Sereno 27 14 44 1014 10 NE 18.5
Ieri h: 04:55 sereno Sereno 26 15 50 1015 10 N/NE 13
Ieri h: 03:55 sereno Sereno 27 16 50 1015 10 NE 9.3
Ieri h: 02:55 sereno Sereno 26 16 54 1015 10 N 3.7
Ieri h: 01:55 sereno Sereno 26 15 50 1015 10 NE 9.3
Ieri h: 00:55 sereno Sereno 27 16 50 1016 10 NE 11.1